createdAt,value
2018-09-02T00:02:16.437Z,13.50
2018-09-02T00:04:45.137Z,13.50
2018-09-02T00:07:14.049Z,13.50
2018-09-02T00:09:42.734Z,13.40
2018-09-02T00:12:11.542Z,13.40
2018-09-02T00:14:40.250Z,13.30
2018-09-02T00:17:09.018Z,13.30
2018-09-02T00:19:37.823Z,13.20
2018-09-02T00:22:06.769Z,13.10
2018-09-02T00:24:35.583Z,13.10
2018-09-02T00:27:04.445Z,13.10
2018-09-02T00:29:33.225Z,13.10
2018-09-02T00:32:01.933Z,13.10
2018-09-02T00:34:30.650Z,13.10
2018-09-02T00:36:59.439Z,13.10
2018-09-02T00:39:28.229Z,13.00
2018-09-02T00:41:56.922Z,13.00
2018-09-02T00:44:25.626Z,13.00
2018-09-02T00:46:54.358Z,12.90
2018-09-02T00:49:23.218Z,12.90
2018-09-02T00:51:52.409Z,12.80
2018-09-02T00:54:21.113Z,12.80
2018-09-02T00:56:49.893Z,12.80
2018-09-02T00:59:18.629Z,12.80
2018-09-02T01:01:47.391Z,12.80
2018-09-02T01:04:16.161Z,12.70
2018-09-02T01:06:45.045Z,12.70
2018-09-02T01:09:13.810Z,12.70
2018-09-02T01:11:42.858Z,12.70
2018-09-02T01:14:11.854Z,12.60
2018-09-02T01:16:40.702Z,12.60
2018-09-02T01:19:09.586Z,12.50
2018-09-02T01:21:38.341Z,12.50
2018-09-02T01:24:07.086Z,12.60
2018-09-02T01:26:35.865Z,12.60
2018-09-02T01:29:04.692Z,12.60
2018-09-02T01:31:33.505Z,12.60
2018-09-02T01:34:02.376Z,12.60
2018-09-02T01:36:31.166Z,12.60
2018-09-02T01:38:59.894Z,12.60
2018-09-02T01:41:28.593Z,12.60
2018-09-02T01:43:57.602Z,12.60
2018-09-02T01:46:26.337Z,12.60
2018-09-02T01:48:55.365Z,12.50
2018-09-02T01:51:24.160Z,12.40
2018-09-02T01:53:52.954Z,12.40
2018-09-02T01:56:21.747Z,12.40
2018-09-02T01:58:50.541Z,12.40
2018-09-02T02:01:19.342Z,12.40
2018-09-02T02:03:48.014Z,12.50
2018-09-02T02:06:16.798Z,12.50
2018-09-02T02:08:45.490Z,12.40
2018-09-02T02:11:14.201Z,12.40
2018-09-02T02:13:44.221Z,12.40
2018-09-02T02:16:13.158Z,12.50
2018-09-02T02:18:41.838Z,12.50
2018-09-02T02:21:10.521Z,12.50
2018-09-02T02:23:39.413Z,12.40
2018-09-02T02:26:08.294Z,12.40
2018-09-02T02:28:37.009Z,12.40
2018-09-02T02:31:05.753Z,12.40
2018-09-02T02:33:34.424Z,12.40
2018-09-02T02:36:03.145Z,12.40
2018-09-02T02:38:31.893Z,12.40
2018-09-02T02:41:00.601Z,12.40
2018-09-02T02:43:29.430Z,12.40
2018-09-02T02:45:58.162Z,12.40
2018-09-02T02:48:26.907Z,12.40
2018-09-02T02:50:55.733Z,12.40
2018-09-02T02:53:24.508Z,12.40
2018-09-02T02:55:53.297Z,12.30
2018-09-02T02:58:22.045Z,12.20
2018-09-02T03:00:50.769Z,12.20
2018-09-02T03:03:19.511Z,12.20
2018-09-02T03:05:48.237Z,12.20
2018-09-02T03:08:16.989Z,12.20
2018-09-02T03:10:45.789Z,12.20
2018-09-02T03:13:14.516Z,12.10
2018-09-02T03:15:43.344Z,12.10
2018-09-02T03:18:12.090Z,12.00
2018-09-02T03:20:40.772Z,12.00
2018-09-02T03:23:09.610Z,12.00
2018-09-02T03:25:38.353Z,11.90
2018-09-02T03:28:07.212Z,12.00
2018-09-02T03:30:36.139Z,12.00
2018-09-02T03:33:04.801Z,12.00
2018-09-02T03:35:33.538Z,12.10
2018-09-02T03:38:02.439Z,12.20
2018-09-02T03:40:31.293Z,12.20
2018-09-02T03:42:59.971Z,12.30
2018-09-02T03:45:28.825Z,12.30
2018-09-02T03:47:57.522Z,12.30
2018-09-02T03:50:26.645Z,12.20
2018-09-02T03:52:55.497Z,12.20
2018-09-02T03:55:24.270Z,12.20
2018-09-02T03:57:59.991Z,12.30
2018-09-02T04:00:28.694Z,12.30
2018-09-02T04:02:57.457Z,12.40
2018-09-02T04:05:26.225Z,12.50
2018-09-02T04:07:55.050Z,12.50
2018-09-02T04:10:23.910Z,12.60
2018-09-02T04:12:52.770Z,12.60
2018-09-02T04:15:21.645Z,12.60
2018-09-02T04:17:50.421Z,12.60
2018-09-02T04:20:23.947Z,12.60
2018-09-02T04:22:52.907Z,12.60
2018-09-02T04:25:21.613Z,12.60
2018-09-02T04:27:50.514Z,12.60
2018-09-02T04:30:19.390Z,12.60
2018-09-02T04:32:48.333Z,12.50
2018-09-02T04:35:17.053Z,12.30
2018-09-02T04:37:45.766Z,12.20
2018-09-02T04:40:21.770Z,12.20
2018-09-02T04:42:50.722Z,12.20
2018-09-02T04:45:19.522Z,12.10
2018-09-02T04:47:48.085Z,12.10
2018-09-02T04:50:19.625Z,12.10
2018-09-02T04:52:48.361Z,12.00
2018-09-02T04:55:17.181Z,12.20
2018-09-02T04:57:46.274Z,12.20
2018-09-02T05:00:15.133Z,12.30
2018-09-02T05:02:43.854Z,12.40
2018-09-02T05:05:12.620Z,12.50
2018-09-02T05:07:41.371Z,12.50
2018-09-02T05:10:10.121Z,12.60
2018-09-02T05:12:39.158Z,12.70
2018-09-02T05:15:07.827Z,12.70
2018-09-02T05:17:36.557Z,12.80
2018-09-02T05:20:05.369Z,12.80
2018-09-02T05:22:34.181Z,12.80
2018-09-02T05:25:02.950Z,12.80
2018-09-02T05:27:31.778Z,12.80
2018-09-02T05:30:00.703Z,12.80
2018-09-02T05:32:29.465Z,12.90
2018-09-02T05:34:58.174Z,12.90
2018-09-02T05:37:26.878Z,13.00
2018-09-02T05:39:55.687Z,13.00
2018-09-02T05:42:24.421Z,13.10
2018-09-02T05:44:53.220Z,13.20
2018-09-02T05:47:22.005Z,13.20
2018-09-02T05:49:50.808Z,13.30
2018-09-02T05:52:19.997Z,13.20
2018-09-02T05:54:48.741Z,13.20
2018-09-02T05:57:17.453Z,13.20
2018-09-02T05:59:46.242Z,13.30
2018-09-02T06:02:15.009Z,13.30
2018-09-02T06:04:43.720Z,13.30
2018-09-02T06:07:12.437Z,13.40
2018-09-02T06:09:41.107Z,13.50
2018-09-02T06:12:09.957Z,13.60
2018-09-02T06:14:38.701Z,13.60
2018-09-02T06:17:07.529Z,13.70
2018-09-02T06:19:39.383Z,13.70
2018-09-02T06:22:08.133Z,13.80
2018-09-02T06:24:36.912Z,13.90
2018-09-02T06:27:06.143Z,14.00
2018-09-02T06:29:34.845Z,14.10
2018-09-02T06:32:04.002Z,14.20
2018-09-02T06:34:32.865Z,14.20
2018-09-02T06:37:01.777Z,14.30
2018-09-02T06:39:30.658Z,14.40
2018-09-02T06:41:59.418Z,14.40
2018-09-02T06:44:42.866Z,14.50
2018-09-02T06:47:11.577Z,14.60
2018-09-02T06:49:40.370Z,14.70
2018-09-02T06:52:09.150Z,14.80
2018-09-02T06:54:38.095Z,14.90
2018-09-02T06:57:12.673Z,15.00
2018-09-02T06:59:41.433Z,15.00
2018-09-02T07:02:10.242Z,15.10
2018-09-02T07:07:30.621Z,15.30
2018-09-02T07:09:59.264Z,15.30
2018-09-02T07:12:32.977Z,15.40
2018-09-02T07:15:01.739Z,15.50
2018-09-02T07:17:30.473Z,15.60
2018-09-02T07:19:59.434Z,15.70
2018-09-02T07:22:28.085Z,15.80
2018-09-02T07:24:56.985Z,15.90
2018-09-02T07:27:26.689Z,15.90
2018-09-02T07:29:56.460Z,16.00
2018-09-02T07:32:25.246Z,16.10
2018-09-02T07:34:54.060Z,16.20
2018-09-02T07:39:57.832Z,16.40
2018-09-02T07:42:26.646Z,16.40
2018-09-02T07:44:55.618Z,16.50
2018-09-02T07:47:24.298Z,16.60
2018-09-02T07:49:52.993Z,16.60
2018-09-02T07:52:21.893Z,16.70
2018-09-02T07:54:50.781Z,16.70
2018-09-02T07:57:19.831Z,16.80
2018-09-02T07:59:48.502Z,16.80
2018-09-02T08:02:17.336Z,16.90
2018-09-02T08:04:46.096Z,16.90
2018-09-02T08:07:14.816Z,17.00
2018-09-02T08:09:43.569Z,17.00
2018-09-02T08:12:12.337Z,17.00
2018-09-02T08:14:57.766Z,17.10
2018-09-02T08:17:26.501Z,17.20
2018-09-02T08:19:55.389Z,17.20
2018-09-02T08:22:24.043Z,17.20
2018-09-02T08:24:57.871Z,17.30
2018-09-02T08:27:26.585Z,17.40
2018-09-02T08:29:56.461Z,17.40
2018-09-02T08:32:25.274Z,17.50
2018-09-02T08:34:54.113Z,17.50
2018-09-02T08:37:22.962Z,17.60
2018-09-02T08:39:51.712Z,17.60
2018-09-02T08:42:20.541Z,17.60
2018-09-02T08:44:49.365Z,17.60
2018-09-02T08:47:22.756Z,17.70
2018-09-02T08:49:51.721Z,17.70
